This demonstration page uses our WeatherBlox Daily Observations layout. Learn more.

39.01783, -85.05884

Hourly Observations for July 13, 2019

Temp ( °F °C ) Dew Point ( °F °C ) Humidity (%) Winds ( mph kmh ) Pressure ( in mb ) Visibility ( mi km ) Precip ( " mm )
12:52 am 00:52 Clear 67 19.4 55 12.8 66 66 Calm 29.94 1014 10 16.09344 0 0
1:52 am 01:52 Clear 67 19.4 55 12.8 66 66 Calm 29.94 1014 10 16.09344 0 0
2:52 am 02:52 Clear 66 18.9 55 12.8 68 68 NW 3 6 29.94 1014 10 16.09344 0 0
3:52 am 03:52 Clear 64 17.8 55 12.8 73 73 NW 3 6 29.97 1015 10 16.09344 0 0
4:52 am 04:52 Clear 63 17.2 55 12.8 76 76 Calm 29.97 1015 10 16.09344 0 0
5:52 am 05:52 Clear 64 17.8 56 13.3 75 75 NNW 3 6 29.97 1015 10 16.09344 0 0
6:52 am 06:52 Mostly Sunny 66 18.9 57 13.9 73 73 NNW 5 7 30 1016 10 16.09344 0 0
7:52 am 07:52 Mostly Sunny 66 18.9 61 16.1 84 84 Calm 30 1016 10 16.09344 0 0
8:52 am 08:52 Partly Cloudy 77 25 53 11.7 43 43 N 5 7 30 1016 10 16.09344 0 0
9:52 am 09:52 Partly Cloudy 81 27.2 52 11.1 37 37 Calm 30.03 1017 10 16.09344 0 0
10:52 am 10:52 Partly Cloudy 83 28.3 52 11.1 34 34 Calm 30.03 1017 10 16.09344 0 0
11:52 am 11:52 Mostly Cloudy 85 29.4 53 11.7 33 33 Calm 30.03 1017 10 16.09344 0 0
12:52 pm 12:52 Partly Cloudy 86 30 57 13.9 37 37 W 8 13 30.03 1017 10 16.09344 0 0
1:52 pm 13:52 Partly Cloudy 87 30.6 55 12.8 34 34 Calm 30.03 1017 10 16.09344 0 0
2:52 pm 14:52 Partly Cloudy 89 31.7 53 11.7 29 29 WSW 6 9 30 1016 10 16.09344 0 0
3:52 pm 15:52 Mostly Sunny 90 32.2 53 11.7 28 28 W 6 9 30 1016 10 16.09344 0 0
4:52 pm 16:52 Mostly Sunny 90 32.2 57 13.9 33 33 W 7 11 30 1016 10 16.09344 0 0
5:52 pm 17:52 Mostly Sunny 90 32.2 57 13.9 33 33 SW 8 13 30 1016 10 16.09344 0 0
6:52 pm 18:52 Mostly Sunny 90 32.2 57 13.9 33 33 W 9 15 29.97 1015 10 16.09344 0 0
7:52 pm 19:52 Mostly Sunny 88 31.1 57 13.9 35 35 NW 6 9 29.97 1015 10 16.09344 0 0
8:52 pm 20:52 Mostly Sunny 82 27.8 60 15.6 47 47 W 5 7 30 1016 10 16.09344 0 0
9:52 pm 21:52 Mostly Clear 77 25 61 16.1 58 58 S 5 7 30 1016 10 16.09344 0 0
10:52 pm 22:52 Clear 76 24.4 61 16.1 60 60 Calm 30 1016 10 16.09344 0 0
11:52 pm 23:52 Clear 74 23.3 61 16.1 64 64 WSW 3 6 30.03 1017 10 16.09344 0 0

Powered by AerisWeather